sensor_id;sensor_type;location;lat;lon;timestamp;pressure;altitude;pressure_sealevel;temperature;humidity
72959;BME280;60008;50.826;6.896;2023-09-19T00:01:48;100325.69;;;16.45;100.00
72959;BME280;60008;50.826;6.896;2023-09-19T00:04:34;100333.53;;;16.47;100.00
72959;BME280;60008;50.826;6.896;2023-09-19T00:07:26;100327.34;;;16.46;100.00
72959;BME280;60008;50.826;6.896;2023-09-19T00:10:11;100332.69;;;16.53;100.00
72959;BME280;60008;50.826;6.896;2023-09-19T00:13:03;100337.00;;;16.47;100.00
72959;BME280;60008;50.826;6.896;2023-09-19T00:15:58;100331.50;;;16.36;100.00
72959;BME280;60008;50.826;6.896;2023-09-19T00:18:50;100334.34;;;16.34;100.00
72959;BME280;60008;50.826;6.896;2023-09-19T00:21:35;100336.84;;;16.36;100.00
72959;BME280;60008;50.826;6.896;2023-09-19T00:24:29;100336.41;;;16.39;100.00
72959;BME280;60008;50.826;6.896;2023-09-19T00:27:14;100332.09;;;16.38;100.00
72959;BME280;60008;50.826;6.896;2023-09-19T00:30:07;100333.13;;;16.37;100.00
72959;BME280;60008;50.826;6.896;2023-09-19T00:32:53;100337.03;;;16.41;100.00
72959;BME280;60008;50.826;6.896;2023-09-19T00:35:49;100341.16;;;16.30;100.00
72959;BME280;60008;50.826;6.896;2023-09-19T00:38:35;100347.75;;;16.21;100.00
72959;BME280;60008;50.826;6.896;2023-09-19T00:41:26;100343.00;;;16.23;100.00
72959;BME280;60008;50.826;6.896;2023-09-19T00:44:14;100344.88;;;16.36;100.00
72959;BME280;60008;50.826;6.896;2023-09-19T00:47:07;100346.28;;;16.38;100.00
72959;BME280;60008;50.826;6.896;2023-09-19T00:49:54;100351.44;;;16.27;100.00
72959;BME280;60008;50.826;6.896;2023-09-19T00:52:47;100349.78;;;16.26;100.00
72959;BME280;60008;50.826;6.896;2023-09-19T00:55:34;100357.59;;;16.21;100.00
72959;BME280;60008;50.826;6.896;2023-09-19T00:58:29;100361.09;;;16.34;100.00
72959;BME280;60008;50.826;6.896;2023-09-19T01:01:18;100358.22;;;16.42;100.00
72959;BME280;60008;50.826;6.896;2023-09-19T01:04:10;100356.34;;;16.36;100.00
72959;BME280;60008;50.826;6.896;2023-09-19T01:06:55;100366.25;;;16.42;100.00
72959;BME280;60008;50.826;6.896;2023-09-19T01:09:49;100377.53;;;16.44;100.00
72959;BME280;60008;50.826;6.896;2023-09-19T01:13:21;100369.09;;;16.47;100.00
72959;BME280;60008;50.826;6.896;2023-09-19T01:16:35;100368.13;;;16.55;100.00
72959;BME280;60008;50.826;6.896;2023-09-19T01:26:10;100382.50;;;16.60;100.00
72959;BME280;60008;50.826;6.896;2023-09-19T01:29:30;100374.06;;;16.63;100.00
72959;BME280;60008;50.826;6.896;2023-09-19T01:32:21;100392.59;;;16.58;100.00
72959;BME280;60008;50.826;6.896;2023-09-19T01:35:13;100387.66;;;16.55;100.00
72959;BME280;60008;50.826;6.896;2023-09-19T01:37:58;100394.25;;;16.53;100.00
72959;BME280;60008;50.826;6.896;2023-09-19T01:41:03;100393.38;;;16.52;100.00
72959;BME280;60008;50.826;6.896;2023-09-19T01:43:59;100394.41;;;16.45;100.00
72959;BME280;60008;50.826;6.896;2023-09-19T01:46:46;100397.50;;;16.42;100.00
72959;BME280;60008;50.826;6.896;2023-09-19T01:49:46;100398.56;;;16.41;100.00
72959;BME280;60008;50.826;6.896;2023-09-19T01:52:36;100396.91;;;16.40;100.00
72959;BME280;60008;50.826;6.896;2023-09-19T01:55:30;100411.72;;;16.36;100.00
72959;BME280;60008;50.826;6.896;2023-09-19T01:58:39;100414.59;;;16.34;100.00
72959;BME280;60008;50.826;6.896;2023-09-19T02:01:34;100414.19;;;16.24;100.00
72959;BME280;60008;50.826;6.896;2023-09-19T02:04:29;100409.66;;;16.18;100.00
72959;BME280;60008;50.826;6.896;2023-09-19T02:07:20;100418.50;;;16.19;100.00
72959;BME280;60008;50.826;6.896;2023-09-19T02:10:14;100421.81;;;16.14;100.00
72959;BME280;60008;50.826;6.896;2023-09-19T02:13:05;100427.16;;;16.14;100.00
72959;BME280;60008;50.826;6.896;2023-09-19T02:15:56;100425.50;;;16.13;100.00
72959;BME280;60008;50.826;6.896;2023-09-19T02:18:42;100433.09;;;16.09;100.00
72959;BME280;60008;50.826;6.896;2023-09-19T02:21:34;100433.50;;;16.06;100.00
72959;BME280;60008;50.826;6.896;2023-09-19T02:24:19;100434.72;;;16.04;100.00
72959;BME280;60008;50.826;6.896;2023-09-19T02:27:11;100439.06;;;16.05;100.00
72959;BME280;60008;50.826;6.896;2023-09-19T02:29:57;100440.06;;;15.97;100.00
72959;BME280;60008;50.826;6.896;2023-09-19T02:32:49;100436.38;;;15.92;100.00
72959;BME280;60008;50.826;6.896;2023-09-19T02:35:34;100434.09;;;15.95;100.00
72959;BME280;60008;50.826;6.896;2023-09-19T02:38:26;100441.72;;;15.92;100.00
72959;BME280;60008;50.826;6.896;2023-09-19T02:41:11;100449.47;;;15.80;100.00
72959;BME280;60008;50.826;6.896;2023-09-19T02:44:03;100449.47;;;15.80;100.00
72959;BME280;60008;50.826;6.896;2023-09-19T02:46:59;100446.59;;;15.82;100.00
72959;BME280;60008;50.826;6.896;2023-09-19T02:49:44;100450.28;;;15.74;100.00
72959;BME280;60008;50.826;6.896;2023-09-19T02:52:36;100450.50;;;15.79;100.00
72959;BME280;60008;50.826;6.896;2023-09-19T02:55:21;100462.06;;;15.86;100.00
72959;BME280;60008;50.826;6.896;2023-09-19T02:58:12;100459.56;;;15.78;100.00
72959;BME280;60008;50.826;6.896;2023-09-19T03:00:59;100454.19;;;15.72;100.00
72959;BME280;60008;50.826;6.896;2023-09-19T03:03:50;100462.59;;;15.69;100.00
72959;BME280;60008;50.826;6.896;2023-09-19T03:06:36;100462.00;;;15.73;100.00
72959;BME280;60008;50.826;6.896;2023-09-19T03:09:28;100454.19;;;15.72;100.00
72959;BME280;60008;50.826;6.896;2023-09-19T03:12:13;100457.06;;;15.70;100.00
72959;BME280;60008;50.826;6.896;2023-09-19T03:15:07;100456.66;;;15.73;100.00
72959;BME280;60008;50.826;6.896;2023-09-19T03:17:53;100467.09;;;15.68;100.00
72959;BME280;60008;50.826;6.896;2023-09-19T03:20:53;100468.56;;;15.64;100.00
72959;BME280;60008;50.826;6.896;2023-09-19T03:23:39;100474.50;;;15.66;100.00
72959;BME280;60008;50.826;6.896;2023-09-19T03:26:31;100477.19;;;15.66;100.00
72959;BME280;60008;50.826;6.896;2023-09-19T03:29:16;100472.66;;;15.67;100.00
72959;BME280;60008;50.826;6.896;2023-09-19T03:32:08;100477.56;;;15.63;100.00
72959;BME280;60008;50.826;6.896;2023-09-19T03:34:56;100480.47;;;15.62;100.00
72959;BME280;60008;50.826;6.896;2023-09-19T03:37:48;100478.16;;;15.52;100.00
72959;BME280;60008;50.826;6.896;2023-09-19T03:40:33;100470.75;;;15.47;100.00
72959;BME280;60008;50.826;6.896;2023-09-19T03:43:25;100472.19;;;15.50;100.00
72959;BME280;60008;50.826;6.896;2023-09-19T03:46:10;100468.06;;;15.47;100.00
72959;BME280;60008;50.826;6.896;2023-09-19T03:49:04;100466.16;;;15.41;100.00
72959;BME280;60008;50.826;6.896;2023-09-19T03:51:56;100468.44;;;15.44;100.00
72959;BME280;60008;50.826;6.896;2023-09-19T03:54:41;100470.47;;;15.42;100.00
72959;BME280;60008;50.826;6.896;2023-09-19T03:57:35;100465.75;;;15.38;100.00
72959;BME280;60008;50.826;6.896;2023-09-19T04:00:21;100473.94;;;15.36;100.00
72959;BME280;60008;50.826;6.896;2023-09-19T04:03:15;100469.63;;;15.35;100.00
72959;BME280;60008;50.826;6.896;2023-09-19T04:06:05;100469.81;;;15.34;100.00
72959;BME280;60008;50.826;6.896;2023-09-19T04:08:57;100471.25;;;15.30;100.00
72959;BME280;60008;50.826;6.896;2023-09-19T04:11:42;100464.44;;;15.27;100.00
72959;BME280;60008;50.826;6.896;2023-09-19T04:14:34;100472.06;;;15.30;100.00
72959;BME280;60008;50.826;6.896;2023-09-19T04:17:26;100469.31;;;15.17;100.00
72959;BME280;60008;50.826;6.896;2023-09-19T04:20:18;100473.91;;;15.30;100.00
72959;BME280;60008;50.826;6.896;2023-09-19T04:23:08;100469.38;;;15.24;100.00
72959;BME280;60008;50.826;6.896;2023-09-19T04:26:00;100468.47;;;15.17;100.00
72959;BME280;60008;50.826;6.896;2023-09-19T04:28:45;100467.47;;;15.18;100.00
72959;BME280;60008;50.826;6.896;2023-09-19T04:31:40;100470.31;;;15.10;100.00
72959;BME280;60008;50.826;6.896;2023-09-19T04:34:28;100468.06;;;15.13;100.00
72959;BME280;60008;50.826;6.896;2023-09-19T04:37:20;100468.47;;;15.10;100.00
72959;BME280;60008;50.826;6.896;2023-09-19T04:40:10;100470.50;;;15.08;100.00
72959;BME280;60008;50.826;6.896;2023-09-19T04:43:11;100480.69;;;14.98;100.00
72959;BME280;60008;50.826;6.896;2023-09-19T04:45:56;100481.97;;;15.02;100.00
72959;BME280;60008;50.826;6.896;2023-09-19T04:48:51;100480.75;;;15.05;100.00
72959;BME280;60008;50.826;6.896;2023-09-19T04:51:36;100482.16;;;15.01;100.00
72959;BME280;60008;50.826;6.896;2023-09-19T04:54:28;100477.63;;;14.95;100.00
72959;BME280;60008;50.826;6.896;2023-09-19T04:57:20;100487.69;;;14.99;100.00
72959;BME280;60008;50.826;6.896;2023-09-19T05:00:05;100488.47;;;14.93;100.00
72959;BME280;60008;50.826;6.896;2023-09-19T05:03:03;100493.63;;;14.95;100.00
72959;BME280;60008;50.826;6.896;2023-09-19T05:05:49;100497.75;;;14.97;100.00
72959;BME280;60008;50.826;6.896;2023-09-19T05:08:55;100499.19;;;15.00;100.00
72959;BME280;60008;50.826;6.896;2023-09-19T05:11:56;100501.28;;;15.04;100.00
72959;BME280;60008;50.826;6.896;2023-09-19T05:14:55;100508.59;;;14.96;100.00
72959;BME280;60008;50.826;6.896;2023-09-19T05:17:40;100522.31;;;14.93;100.00
72959;BME280;60008;50.826;6.896;2023-09-19T05:20:32;100519.47;;;14.94;100.00
72959;BME280;60008;50.826;6.896;2023-09-19T05:23:18;100525.13;;;14.84;100.00
72959;BME280;60008;50.826;6.896;2023-09-19T05:26:13;100534.94;;;14.77;100.00
72959;BME280;60008;50.826;6.896;2023-09-19T05:28:58;100533.25;;;14.70;100.00
72959;BME280;60008;50.826;6.896;2023-09-19T05:31:50;100530.75;;;14.68;100.00
72959;BME280;60008;50.826;6.896;2023-09-19T05:34:35;100535.47;;;14.66;100.00
72959;BME280;60008;50.826;6.896;2023-09-19T05:37:28;100538.31;;;14.65;100.00
72959;BME280;60008;50.826;6.896;2023-09-19T05:40:14;100553.88;;;14.61;100.00
72959;BME280;60008;50.826;6.896;2023-09-19T05:43:07;100560.31;;;14.67;100.00
72959;BME280;60008;50.826;6.896;2023-09-19T05:45:59;100552.31;;;14.67;100.00
72959;BME280;60008;50.826;6.896;2023-09-19T05:48:51;100558.06;;;14.70;100.00
72959;BME280;60008;50.826;6.896;2023-09-19T05:51:36;100553.75;;;14.69;100.00
72959;BME280;60008;50.826;6.896;2023-09-19T05:54:27;100562.97;;;14.67;100.00
72959;BME280;60008;50.826;6.896;2023-09-19T05:57:12;100563.72;;;14.82;100.00
72959;BME280;60008;50.826;6.896;2023-09-19T06:00:05;100574.75;;;14.79;100.00
72959;BME280;60008;50.826;6.896;2023-09-19T06:02:57;100574.00;;;14.85;100.00
72959;BME280;60008;50.826;6.896;2023-09-19T06:05:49;100565.53;;;14.81;100.00
72959;BME280;60008;50.826;6.896;2023-09-19T06:08:35;100577.41;;;15.00;100.00
72959;BME280;60008;50.826;6.896;2023-09-19T06:11:27;100591.25;;;15.10;100.00
72959;BME280;60008;50.826;6.896;2023-09-19T06:14:26;100591.16;;;14.97;100.00
72959;BME280;60008;50.826;6.896;2023-09-19T06:17:18;100597.44;;;15.11;100.00
72959;BME280;60008;50.826;6.896;2023-09-19T06:20:05;100601.03;;;15.03;100.00
72959;BME280;60008;50.826;6.896;2023-09-19T06:23:04;100602.91;;;15.03;100.00
72959;BME280;60008;50.826;6.896;2023-09-19T06:25:55;100597.81;;;15.08;100.00
72959;BME280;60008;50.826;6.896;2023-09-19T06:28:47;100606.66;;;15.08;100.00
72959;BME280;60008;50.826;6.896;2023-09-19T06:31:32;100603.56;;;15.11;100.00
72959;BME280;60008;50.826;6.896;2023-09-19T06:34:24;100610.66;;;15.25;100.00
72959;BME280;60008;50.826;6.896;2023-09-19T06:37:17;100613.53;;;15.24;100.00
72959;BME280;60008;50.826;6.896;2023-09-19T06:40:03;100604.56;;;15.31;100.00
72959;BME280;60008;50.826;6.896;2023-09-19T06:42:57;100609.44;;;15.28;100.00
72959;BME280;60008;50.826;6.896;2023-09-19T06:45:42;100611.56;;;15.32;100.00
72959;BME280;60008;50.826;6.896;2023-09-19T06:48:34;100610.19;;;15.43;100.00
72959;BME280;60008;50.826;6.896;2023-09-19T06:51:26;100614.16;;;15.47;100.00
72959;BME280;60008;50.826;6.896;2023-09-19T06:54:11;100611.47;;;15.47;100.00
72959;BME280;60008;50.826;6.896;2023-09-19T06:57:03;100611.59;;;15.39;100.00
72959;BME280;60008;50.826;6.896;2023-09-19T06:59:48;100610.59;;;15.68;100.00
72959;BME280;60008;50.826;6.896;2023-09-19T07:02:42;100616.50;;;15.63;100.00
72959;BME280;60008;50.826;6.896;2023-09-19T07:05:35;100612.59;;;15.59;100.00
72959;BME280;60008;50.826;6.896;2023-09-19T07:08:34;100614.34;;;15.73;100.00
72959;BME280;60008;50.826;6.896;2023-09-19T07:11:19;100611.59;;;15.67;100.00
72959;BME280;60008;50.826;6.896;2023-09-19T07:14:11;100607.84;;;15.95;100.00
72959;BME280;60008;50.826;6.896;2023-09-19T07:17:03;100609.94;;;16.06;100.00
72959;BME280;60008;50.826;6.896;2023-09-19T07:19:55;100614.84;;;15.96;100.00
72959;BME280;60008;50.826;6.896;2023-09-19T07:22:46;100611.91;;;16.32;100.00
72959;BME280;60008;50.826;6.896;2023-09-19T07:25:32;100615.13;;;16.15;100.00
72959;BME280;60008;50.826;6.896;2023-09-19T07:28:24;100618.00;;;16.13;100.00
72959;BME280;60008;50.826;6.896;2023-09-19T07:31:09;100623.41;;;16.26;100.00
72959;BME280;60008;50.826;6.896;2023-09-19T07:34:01;100616.03;;;16.35;100.00
72959;BME280;60008;50.826;6.896;2023-09-19T07:36:49;100620.38;;;16.36;100.00
72959;BME280;60008;50.826;6.896;2023-09-19T07:39:40;100627.19;;;16.51;100.00
72959;BME280;60008;50.826;6.896;2023-09-19T07:42:27;100622.09;;;16.56;100.00
72959;BME280;60008;50.826;6.896;2023-09-19T07:45:18;100619.63;;;16.61;100.00
72959;BME280;60008;50.826;6.896;2023-09-19T07:48:03;100627.44;;;16.56;100.00
72959;BME280;60008;50.826;6.896;2023-09-19T07:51:04;100633.19;;;16.53;100.00
72959;BME280;60008;50.826;6.896;2023-09-19T07:53:49;100632.81;;;16.70;100.00
72959;BME280;60008;50.826;6.896;2023-09-19T07:56:41;100634.94;;;16.87;100.00
72959;BME280;60008;50.826;6.896;2023-09-19T07:59:26;100634.09;;;16.93;100.00
72959;BME280;60008;50.826;6.896;2023-09-19T08:02:18;100635.34;;;17.10;100.00
72959;BME280;60008;50.826;6.896;2023-09-19T08:05:03;100631.03;;;17.03;100.00
72959;BME280;60008;50.826;6.896;2023-09-19T08:07:58;100636.19;;;16.98;100.00
72959;BME280;60008;50.826;6.896;2023-09-19T08:10:44;100637.00;;;17.38;100.00
72959;BME280;60008;50.826;6.896;2023-09-19T08:13:44;100641.56;;;17.63;100.00
72959;BME280;60008;50.826;6.896;2023-09-19T08:16:36;100627.91;;;17.52;100.00
72959;BME280;60008;50.826;6.896;2023-09-19T08:19:22;100639.66;;;17.70;100.00
72959;BME280;60008;50.826;6.896;2023-09-19T08:22:15;100638.84;;;17.44;100.00
72959;BME280;60008;50.826;6.896;2023-09-19T08:25:02;100637.41;;;17.41;100.00
72959;BME280;60008;50.826;6.896;2023-09-19T08:27:58;100642.78;;;17.28;100.00
72959;BME280;60008;50.826;6.896;2023-09-19T08:30:46;100633.88;;;17.67;100.00
72959;BME280;60008;50.826;6.896;2023-09-19T08:33:38;100630.75;;;17.90;100.00
72959;BME280;60008;50.826;6.896;2023-09-19T08:36:23;100624.19;;;17.72;100.00
72959;BME280;60008;50.826;6.896;2023-09-19T08:39:15;100632.66;;;17.82;100.00
72959;BME280;60008;50.826;6.896;2023-09-19T08:42:01;100634.09;;;17.78;100.00
72959;BME280;60008;50.826;6.896;2023-09-19T08:44:55;100629.84;;;18.15;100.00
72959;BME280;60008;50.826;6.896;2023-09-19T08:47:46;100622.66;;;18.91;100.00
72959;BME280;60008;50.826;6.896;2023-09-19T08:50:51;100634.00;;;19.18;100.00
72959;BME280;60008;50.826;6.896;2023-09-19T08:54:03;100630.84;;;19.52;100.00
72959;BME280;60008;50.826;6.896;2023-09-19T08:57:00;100631.25;;;19.92;100.00
72959;BME280;60008;50.826;6.896;2023-09-19T08:59:54;100635.22;;;19.22;100.00
72959;BME280;60008;50.826;6.896;2023-09-19T09:02:41;100638.13;;;19.88;100.00
72959;BME280;60008;50.826;6.896;2023-09-19T09:05:35;100631.09;;;20.24;100.00
72959;BME280;60008;50.826;6.896;2023-09-19T09:08:22;100640.38;;;21.17;100.00
72959;BME280;60008;50.826;6.896;2023-09-19T09:11:15;100636.75;;;20.93;100.00
72959;BME280;60008;50.826;6.896;2023-09-19T09:14:01;100634.75;;;19.75;100.00
72959;BME280;60008;50.826;6.896;2023-09-19T09:17:00;100638.34;;;20.71;100.00
72959;BME280;60008;50.826;6.896;2023-09-19T09:19:46;100628.09;;;19.95;100.00
72959;BME280;60008;50.826;6.896;2023-09-19T09:22:50;100627.41;;;20.54;100.00
72959;BME280;60008;50.826;6.896;2023-09-19T09:25:55;100631.47;;;21.74;100.00
72959;BME280;60008;50.826;6.896;2023-09-19T09:28:47;100629.16;;;21.55;100.00
72959;BME280;60008;50.826;6.896;2023-09-19T09:31:40;100629.25;;;21.25;100.00
72959;BME280;60008;50.826;6.896;2023-09-19T09:34:33;100630.19;;;21.54;100.00
72959;BME280;60008;50.826;6.896;2023-09-19T09:37:26;100620.09;;;20.73;100.00
72959;BME280;60008;50.826;6.896;2023-09-19T09:40:21;100618.19;;;20.62;100.00
72959;BME280;60008;50.826;6.896;2023-09-19T09:43:29;100621.06;;;21.55;100.00
72959;BME280;60008;50.826;6.896;2023-09-19T09:46:22;100621.59;;;21.10;100.00
72959;BME280;60008;50.826;6.896;2023-09-19T09:49:13;100617.41;;;20.25;100.00
72959;BME280;60008;50.826;6.896;2023-09-19T09:52:06;100614.88;;;20.12;100.00
72959;BME280;60008;50.826;6.896;2023-09-19T09:55:02;100623.06;;;20.95;100.00
72959;BME280;60008;50.826;6.896;2023-09-19T09:58:15;100611.78;;;21.27;100.00
72959;BME280;60008;50.826;6.896;2023-09-19T10:01:08;100611.06;;;21.78;100.00
72959;BME280;60008;50.826;6.896;2023-09-19T10:03:57;100608.44;;;22.46;100.00
72959;BME280;60008;50.826;6.896;2023-09-19T10:06:50;100608.59;;;22.68;100.00
72959;BME280;60008;50.826;6.896;2023-09-19T10:09:46;100609.13;;;23.15;93.70
72959;BME280;60008;50.826;6.896;2023-09-19T10:12:47;100600.88;;;21.11;100.00
72959;BME280;60008;50.826;6.896;2023-09-19T10:15:37;100594.53;;;21.28;100.00
72959;BME280;60008;50.826;6.896;2023-09-19T10:18:29;100594.28;;;21.88;98.01
72959;BME280;60008;50.826;6.896;2023-09-19T10:21:18;100592.00;;;22.08;94.44
72959;BME280;60008;50.826;6.896;2023-09-19T10:24:14;100587.78;;;20.85;100.00
72959;BME280;60008;50.826;6.896;2023-09-19T10:27:01;100594.16;;;21.83;97.34
72959;BME280;60008;50.826;6.896;2023-09-19T10:29:55;100578.16;;;22.05;92.38
72959;BME280;60008;50.826;6.896;2023-09-19T10:32:42;100580.09;;;22.21;93.52
72959;BME280;60008;50.826;6.896;2023-09-19T10:35:38;100581.81;;;22.38;91.35
72959;BME280;60008;50.826;6.896;2023-09-19T10:38:27;100574.03;;;23.37;84.11
72959;BME280;60008;50.826;6.896;2023-09-19T10:41:22;100581.75;;;22.78;85.74
72959;BME280;60008;50.826;6.896;2023-09-19T10:44:14;100585.19;;;21.19;95.64
72959;BME280;60008;50.826;6.896;2023-09-19T10:47:03;100583.25;;;21.89;92.48
72959;BME280;60008;50.826;6.896;2023-09-19T10:49:57;100585.53;;;21.46;100.00
72959;BME280;60008;50.826;6.896;2023-09-19T10:52:43;100588.91;;;21.53;99.23
72959;BME280;60008;50.826;6.896;2023-09-19T10:55:35;100576.09;;;21.83;97.44
72959;BME280;60008;50.826;6.896;2023-09-19T10:58:28;100590.44;;;21.38;99.41
72959;BME280;60008;50.826;6.896;2023-09-19T11:01:41;100579.50;;;21.79;97.38
72959;BME280;60008;50.826;6.896;2023-09-19T11:04:34;100574.44;;;21.82;95.73
72959;BME280;60008;50.826;6.896;2023-09-19T11:07:24;100578.47;;;21.45;96.61
72959;BME280;60008;50.826;6.896;2023-09-19T11:10:46;100581.66;;;21.30;97.03
72959;BME280;60008;50.826;6.896;2023-09-19T11:13:32;100578.91;;;21.88;94.20
72959;BME280;60008;50.826;6.896;2023-09-19T11:16:33;100575.88;;;22.25;91.23
72959;BME280;60008;50.826;6.896;2023-09-19T11:19:18;100578.69;;;21.90;93.41
72959;BME280;60008;50.826;6.896;2023-09-19T11:22:10;100575.69;;;21.52;95.43
72959;BME280;60008;50.826;6.896;2023-09-19T11:24:56;100570.06;;;22.05;92.69
72959;BME280;60008;50.826;6.896;2023-09-19T11:30:54;100580.78;;;21.88;90.59
72959;BME280;60008;50.826;6.896;2023-09-19T11:33:46;100579.44;;;22.14;89.55
72959;BME280;60008;50.826;6.896;2023-09-19T11:36:35;100589.81;;;22.33;84.87
72959;BME280;60008;50.826;6.896;2023-09-19T11:39:28;100585.13;;;21.89;85.77
72959;BME280;60008;50.826;6.896;2023-09-19T11:42:45;100593.63;;;21.11;92.55
72959;BME280;60008;50.826;6.896;2023-09-19T11:48:32;100593.03;;;21.21;93.56
72959;BME280;60008;50.826;6.896;2023-09-19T11:51:25;100584.53;;;20.94;92.87
72959;BME280;60008;50.826;6.896;2023-09-19T11:54:14;100592.44;;;21.54;92.40
72959;BME280;60008;50.826;6.896;2023-09-19T11:57:20;100585.94;;;21.78;92.73
72959;BME280;60008;50.826;6.896;2023-09-19T12:00:19;100596.09;;;21.36;90.05
72959;BME280;60008;50.826;6.896;2023-09-19T12:03:09;100597.13;;;21.35;88.22
72959;BME280;60008;50.826;6.896;2023-09-19T12:06:01;100587.34;;;20.99;88.50
72959;BME280;60008;50.826;6.896;2023-09-19T12:08:47;100593.00;;;21.09;88.34
72959;BME280;60008;50.826;6.896;2023-09-19T12:11:42;100590.09;;;21.11;89.97
72959;BME280;60008;50.826;6.896;2023-09-19T12:14:35;100590.91;;;21.11;87.52
72959;BME280;60008;50.826;6.896;2023-09-19T12:17:40;100585.81;;;20.92;88.46
72959;BME280;60008;50.826;6.896;2023-09-19T12:20:43;100594.31;;;21.42;91.84
72959;BME280;60008;50.826;6.896;2023-09-19T12:23:38;100581.28;;;21.62;90.44
72959;BME280;60008;50.826;6.896;2023-09-19T12:26:27;100578.97;;;21.19;89.52
72959;BME280;60008;50.826;6.896;2023-09-19T12:29:21;100579.66;;;21.14;92.87
72959;BME280;60008;50.826;6.896;2023-09-19T12:32:07;100572.91;;;20.94;93.30
72959;BME280;60008;50.826;6.896;2023-09-19T12:34:58;100570.22;;;20.94;92.45
72959;BME280;60008;50.826;6.896;2023-09-19T12:37:44;100578.00;;;21.36;94.72
72959;BME280;60008;50.826;6.896;2023-09-19T12:40:44;100574.50;;;21.13;93.13
72959;BME280;60008;50.826;6.896;2023-09-19T12:43:29;100570.81;;;20.96;91.66
72959;BME280;60008;50.826;6.896;2023-09-19T12:46:25;100573.09;;;21.22;95.25
72959;BME280;60008;50.826;6.896;2023-09-19T12:49:18;100574.50;;;21.13;91.01
72959;BME280;60008;50.826;6.896;2023-09-19T12:52:10;100574.69;;;21.00;88.11
72959;BME280;60008;50.826;6.896;2023-09-19T12:55:02;100568.88;;;21.14;91.21
72959;BME280;60008;50.826;6.896;2023-09-19T13:00:54;100560.19;;;21.12;91.12
72959;BME280;60008;50.826;6.896;2023-09-19T13:03:40;100562.72;;;20.96;94.96
72959;BME280;60008;50.826;6.896;2023-09-19T13:06:36;100554.69;;;21.19;94.86
72959;BME280;60008;50.826;6.896;2023-09-19T13:09:30;100546.84;;;21.29;95.16
72959;BME280;60008;50.826;6.896;2023-09-19T13:12:37;100553.41;;;21.10;94.39
72959;BME280;60008;50.826;6.896;2023-09-19T13:15:53;100560.25;;;20.83;94.63
72959;BME280;60008;50.826;6.896;2023-09-19T13:18:53;100552.19;;;20.94;94.76
72959;BME280;60008;50.826;6.896;2023-09-19T13:21:45;100544.28;;;20.69;95.21
72959;BME280;60008;50.826;6.896;2023-09-19T13:24:41;100548.53;;;20.77;94.77
72959;BME280;60008;50.826;6.896;2023-09-19T13:27:26;100529.69;;;20.89;92.61
72959;BME280;60008;50.826;6.896;2023-09-19T13:30:21;100543.97;;;20.77;93.88
72959;BME280;60008;50.826;6.896;2023-09-19T13:33:09;100538.00;;;20.87;95.18
72959;BME280;60008;50.826;6.896;2023-09-19T13:36:01;100534.72;;;20.97;93.39
72959;BME280;60008;50.826;6.896;2023-09-19T13:38:46;100536.25;;;20.81;94.82
72959;BME280;60008;50.826;6.896;2023-09-19T13:41:40;100528.50;;;20.85;93.63
72959;BME280;60008;50.826;6.896;2023-09-19T13:44:26;100531.69;;;20.82;94.66
72959;BME280;60008;50.826;6.896;2023-09-19T13:47:18;100537.44;;;21.20;94.67
72959;BME280;60008;50.826;6.896;2023-09-19T13:50:09;100531.47;;;21.18;94.92
72959;BME280;60008;50.826;6.896;2023-09-19T13:53:01;100534.19;;;21.29;94.61
72959;BME280;60008;50.826;6.896;2023-09-19T13:55:47;100533.06;;;20.96;94.28
72959;BME280;60008;50.826;6.896;2023-09-19T13:58:40;100522.34;;;21.19;96.44
72959;BME280;60008;50.826;6.896;2023-09-19T14:01:27;100522.19;;;21.02;95.83
72959;BME280;60008;50.826;6.896;2023-09-19T14:04:19;100532.03;;;20.97;96.25
72959;BME280;60008;50.826;6.896;2023-09-19T14:07:05;100538.25;;;20.97;96.00
72959;BME280;60008;50.826;6.896;2023-09-19T14:09:58;100533.28;;;20.71;97.77
72959;BME280;60008;50.826;6.896;2023-09-19T14:12:46;100542.03;;;20.55;98.78
72959;BME280;60008;50.826;6.896;2023-09-19T14:15:38;100539.38;;;20.66;98.94
72959;BME280;60008;50.826;6.896;2023-09-19T14:18:31;100547.44;;;20.66;98.62
72959;BME280;60008;50.826;6.896;2023-09-19T14:21:22;100535.59;;;20.56;96.38
72959;BME280;60008;50.826;6.896;2023-09-19T14:24:08;100535.72;;;20.61;99.22
72959;BME280;60008;50.826;6.896;2023-09-19T14:27:00;100530.75;;;20.76;98.19
72959;BME280;60008;50.826;6.896;2023-09-19T14:29:45;100544.59;;;20.50;98.55
72959;BME280;60008;50.826;6.896;2023-09-19T14:32:37;100552.22;;;20.53;99.61
72959;BME280;60008;50.826;6.896;2023-09-19T14:35:23;100548.91;;;20.39;99.67
72959;BME280;60008;50.826;6.896;2023-09-19T14:38:15;100546.97;;;20.28;100.00
72959;BME280;60008;50.826;6.896;2023-09-19T14:41:05;100551.91;;;20.31;100.00
72959;BME280;60008;50.826;6.896;2023-09-19T14:43:57;100550.94;;;20.26;100.00
72959;BME280;60008;50.826;6.896;2023-09-19T14:46:42;100543.84;;;20.31;100.00
72959;BME280;60008;50.826;6.896;2023-09-19T14:49:36;100542.03;;;20.43;100.00
72959;BME280;60008;50.826;6.896;2023-09-19T14:52:24;100545.16;;;20.22;100.00
72959;BME280;60008;50.826;6.896;2023-09-19T14:55:19;100532.19;;;20.19;100.00
72959;BME280;60008;50.826;6.896;2023-09-19T14:58:05;100537.19;;;20.15;100.00
72959;BME280;60008;50.826;6.896;2023-09-19T15:01:07;100542.88;;;20.26;100.00
72959;BME280;60008;50.826;6.896;2023-09-19T15:03:59;100544.91;;;20.12;99.78
72959;BME280;60008;50.826;6.896;2023-09-19T15:06:52;100550.41;;;20.17;99.75